createdAt,value
2023-03-21T00:01:15.816Z,97.50
2023-03-21T00:03:46.984Z,97.60
2023-03-21T00:06:17.499Z,97.60
2023-03-21T00:08:46.396Z,97.70
2023-03-21T00:11:16.761Z,97.70
2023-03-21T00:13:43.888Z,97.70
2023-03-21T00:16:23.132Z,97.70
2023-03-21T00:18:54.427Z,97.80
2023-03-21T00:21:44.333Z,97.80
2023-03-21T00:24:17.196Z,97.80
2023-03-21T00:26:44.938Z,97.80
2023-03-21T00:29:12.108Z,97.80
2023-03-21T00:31:39.106Z,97.90
2023-03-21T00:34:06.422Z,97.90
2023-03-21T00:36:33.643Z,97.90
2023-03-21T00:39:06.332Z,97.90
2023-03-21T00:41:48.940Z,98.00
2023-03-21T00:44:17.637Z,98.00
2023-03-21T00:46:57.406Z,98.10
2023-03-21T00:49:33.886Z,98.10
2023-03-21T00:52:18.355Z,98.10
2023-03-21T00:54:52.094Z,98.10
2023-03-21T00:57:22.114Z,98.10
2023-03-21T00:59:52.774Z,98.10
2023-03-21T01:02:23.242Z,98.10
2023-03-21T01:04:50.799Z,98.10
2023-03-21T01:07:17.924Z,98.10
2023-03-21T01:09:46.222Z,98.10
2023-03-21T01:12:15.613Z,98.10
2023-03-21T01:14:42.908Z,98.20
2023-03-21T01:17:15.134Z,98.10
2023-03-21T01:19:52.070Z,98.10
2023-03-21T01:22:21.310Z,98.10
2023-03-21T01:25:05.678Z,98.10
2023-03-21T01:27:36.251Z,98.10
2023-03-21T01:30:19.102Z,98.20
2023-03-21T01:32:48.002Z,98.20
2023-03-21T01:35:15.145Z,98.20
2023-03-21T01:37:43.725Z,98.20
2023-03-21T01:40:24.327Z,98.20
2023-03-21T01:42:56.826Z,98.20
2023-03-21T01:46:03.240Z,98.20
2023-03-21T01:48:57.744Z,98.20
2023-03-21T01:51:29.728Z,98.20
2023-03-21T01:54:00.735Z,98.30
2023-03-21T01:56:37.532Z,98.30
2023-03-21T01:59:15.147Z,98.40
2023-03-21T02:01:53.396Z,98.40
2023-03-21T02:04:28.208Z,98.50
2023-03-21T02:07:23.303Z,98.50
2023-03-21T02:09:55.523Z,98.50
2023-03-21T02:12:25.178Z,98.50
2023-03-21T02:14:53.270Z,98.50
2023-03-21T02:17:56.845Z,98.50
2023-03-21T02:21:13.081Z,98.50
2023-03-21T02:23:54.319Z,98.50
2023-03-21T02:26:45.013Z,98.50
2023-03-21T02:29:38.463Z,98.40
2023-03-21T02:32:37.530Z,98.40
2023-03-21T02:35:35.398Z,98.40
2023-03-21T02:38:18.449Z,98.50
2023-03-21T02:41:13.150Z,98.50
2023-03-21T02:44:11.453Z,98.50
2023-03-21T02:47:07.222Z,98.40
2023-03-21T02:49:50.040Z,98.40
2023-03-21T02:52:37.338Z,98.50
2023-03-21T02:55:14.260Z,98.40
2023-03-21T02:57:51.249Z,98.50
2023-03-21T03:00:26.484Z,98.50
2023-03-21T03:03:07.863Z,98.50
2023-03-21T03:06:00.166Z,98.50
2023-03-21T03:09:01.303Z,98.50
2023-03-21T03:11:34.201Z,98.50
2023-03-21T03:14:32.211Z,98.50
2023-03-21T03:17:34.938Z,98.50
2023-03-21T03:20:25.757Z,98.50
2023-03-21T03:23:31.392Z,98.50
2023-03-21T03:26:28.746Z,98.50
2023-03-21T03:29:03.293Z,98.50
2023-03-21T03:31:36.217Z,98.50
2023-03-21T03:34:10.564Z,98.60
2023-03-21T03:36:44.914Z,98.60
2023-03-21T03:39:16.342Z,98.60
2023-03-21T03:42:25.484Z,98.70
2023-03-21T03:44:44.753Z,98.70
2023-03-21T03:47:33.915Z,98.80
2023-03-21T03:50:21.123Z,98.80
2023-03-21T03:53:01.251Z,98.80
2023-03-21T03:55:34.695Z,98.80
2023-03-21T03:58:22.101Z,98.80
2023-03-21T04:00:51.942Z,98.80
2023-03-21T04:03:19.114Z,98.80
2023-03-21T04:05:48.481Z,98.80
2023-03-21T04:08:17.382Z,98.80
2023-03-21T04:10:51.818Z,98.80
2023-03-21T04:13:19.693Z,98.80
2023-03-21T04:16:08.839Z,98.70
2023-03-21T04:18:36.191Z,98.70
2023-03-21T04:21:07.804Z,98.70
2023-03-21T04:23:36.038Z,98.70
2023-03-21T04:26:04.623Z,98.70
2023-03-21T04:28:37.370Z,98.70
2023-03-21T04:31:27.247Z,98.80
2023-03-21T04:34:09.976Z,98.80
2023-03-21T04:36:43.541Z,98.80
2023-03-21T04:39:13.505Z,98.80
2023-03-21T04:41:45.482Z,98.80
2023-03-21T04:44:18.882Z,98.80
2023-03-21T04:46:46.959Z,98.80
2023-03-21T04:49:19.073Z,98.80
2023-03-21T04:51:46.422Z,98.80
2023-03-21T04:54:18.425Z,98.70
2023-03-21T04:56:45.659Z,98.70
2023-03-21T04:59:15.576Z,98.70
2023-03-21T05:01:43.985Z,98.70
2023-03-21T05:04:13.264Z,98.70
2023-03-21T05:06:42.770Z,98.70
2023-03-21T05:09:10.115Z,98.70
2023-03-21T05:11:40.448Z,98.70
2023-03-21T05:14:14.761Z,98.60
2023-03-21T05:16:45.215Z,98.60
2023-03-21T05:19:14.104Z,98.60
2023-03-21T05:21:45.895Z,98.60
2023-03-21T05:24:20.066Z,98.60
2023-03-21T05:26:52.406Z,98.60
2023-03-21T05:29:25.144Z,98.60
2023-03-21T05:31:58.904Z,98.70
2023-03-21T05:34:27.249Z,98.70
2023-03-21T05:36:55.465Z,98.70
2023-03-21T05:39:25.375Z,98.70
2023-03-21T05:42:15.146Z,98.70
2023-03-21T05:44:42.992Z,98.70
2023-03-21T05:47:16.815Z,98.80
2023-03-21T05:49:47.277Z,98.80
2023-03-21T05:52:22.084Z,98.80
2023-03-21T05:54:49.815Z,98.80
2023-03-21T05:57:29.174Z,98.80
2023-03-21T06:00:03.865Z,98.80
2023-03-21T06:02:42.479Z,98.80
2023-03-21T06:05:26.536Z,98.80
2023-03-21T06:07:54.203Z,98.80
2023-03-21T06:10:22.037Z,98.80
2023-03-21T06:12:49.902Z,98.80
2023-03-21T06:15:26.905Z,98.80
2023-03-21T06:18:04.881Z,98.80
2023-03-21T06:20:32.863Z,98.80
2023-03-21T06:23:07.909Z,98.80
2023-03-21T06:25:35.348Z,98.80
2023-03-21T06:28:04.511Z,98.80
2023-03-21T06:30:33.310Z,98.80
2023-03-21T06:33:20.376Z,98.80
2023-03-21T06:35:55.016Z,98.80
2023-03-21T06:38:23.296Z,98.70
2023-03-21T06:40:51.125Z,98.70
2023-03-21T06:43:18.680Z,98.70
2023-03-21T06:45:46.738Z,98.70
2023-03-21T06:48:14.221Z,98.70
2023-03-21T06:50:52.362Z,98.60
2023-03-21T06:53:25.000Z,98.60
2023-03-21T06:56:15.579Z,98.60
2023-03-21T06:58:43.772Z,98.60
2023-03-21T07:01:19.310Z,98.50
2023-03-21T07:03:59.047Z,98.50
2023-03-21T07:06:31.484Z,98.50
2023-03-21T07:08:59.456Z,98.40
2023-03-21T07:11:36.800Z,98.40
2023-03-21T07:14:05.534Z,98.30
2023-03-21T07:16:38.605Z,98.30
2023-03-21T07:19:05.782Z,98.30
2023-03-21T07:21:37.737Z,98.20
2023-03-21T07:24:04.981Z,98.10
2023-03-21T07:26:34.492Z,98.10
2023-03-21T07:29:04.031Z,98.00
2023-03-21T07:31:31.079Z,97.90
2023-03-21T07:34:01.810Z,97.90
2023-03-21T07:36:47.148Z,97.80
2023-03-21T07:39:14.414Z,97.70
2023-03-21T07:41:46.380Z,97.70
2023-03-21T07:44:26.716Z,97.70
2023-03-21T07:47:02.771Z,97.60
2023-03-21T07:49:30.433Z,97.90
2023-03-21T07:52:00.022Z,97.60
2023-03-21T07:54:28.716Z,97.60
2023-03-21T07:56:57.001Z,97.70
2023-03-21T07:59:27.113Z,97.70
2023-03-21T08:01:58.037Z,97.70
2023-03-21T08:04:26.086Z,97.80
2023-03-21T08:06:53.186Z,97.90
2023-03-21T08:09:20.531Z,97.90
2023-03-21T08:11:47.697Z,98.00
2023-03-21T08:14:14.879Z,98.10
2023-03-21T08:16:42.307Z,98.10
2023-03-21T08:19:09.644Z,98.10
2023-03-21T08:21:39.201Z,98.10
2023-03-21T08:24:07.272Z,98.20
2023-03-21T08:26:34.730Z,98.20
2023-03-21T08:29:03.472Z,98.20
2023-03-21T08:31:30.633Z,98.20
2023-03-21T08:34:00.320Z,98.20
2023-03-21T08:36:30.023Z,98.20
2023-03-21T08:39:05.256Z,98.20
2023-03-21T08:41:34.054Z,98.20
2023-03-21T08:44:01.414Z,98.20
2023-03-21T08:46:31.754Z,98.20
2023-03-21T08:49:01.701Z,98.20
2023-03-21T08:51:31.860Z,98.20
2023-03-21T08:54:02.200Z,98.20
2023-03-21T08:56:31.940Z,98.20
2023-03-21T08:59:04.797Z,98.20
2023-03-21T09:01:32.813Z,98.30
2023-03-21T09:04:02.410Z,98.30
2023-03-21T09:06:30.343Z,98.30
2023-03-21T09:09:00.143Z,98.30
2023-03-21T09:11:30.557Z,98.30
2023-03-21T09:13:57.900Z,98.20
2023-03-21T09:16:30.715Z,98.30
2023-03-21T09:19:03.410Z,98.30
2023-03-21T09:21:34.560Z,98.30
2023-03-21T09:24:05.967Z,98.30
2023-03-21T09:26:36.753Z,98.30
2023-03-21T09:29:06.049Z,98.30
2023-03-21T09:31:33.403Z,98.30
2023-03-21T09:34:00.817Z,98.20
2023-03-21T09:36:32.695Z,98.20
2023-03-21T09:39:05.452Z,98.20
2023-03-21T09:41:45.050Z,98.20
2023-03-21T09:44:27.964Z,98.10
2023-03-21T09:47:21.914Z,98.00
2023-03-21T09:50:15.110Z,98.00
2023-03-21T09:53:08.927Z,98.00
2023-03-21T09:55:39.751Z,98.00
2023-03-21T09:58:26.411Z,98.00
2023-03-21T10:01:01.293Z,98.00
2023-03-21T10:03:35.295Z,98.00
2023-03-21T10:06:07.569Z,98.10
2023-03-21T10:08:37.134Z,98.10
2023-03-21T10:11:21.704Z,98.10
2023-03-21T10:14:09.784Z,98.00
2023-03-21T10:16:43.649Z,98.00
2023-03-21T10:19:18.994Z,97.90
2023-03-21T10:22:00.832Z,98.10
2023-03-21T10:24:29.571Z,97.80
2023-03-21T10:26:59.610Z,97.70
2023-03-21T10:29:47.350Z,97.60
2023-03-21T10:32:18.295Z,97.70
2023-03-21T10:34:51.324Z,97.30
2023-03-21T10:37:18.837Z,97.20
2023-03-21T10:39:49.041Z,97.20
2023-03-21T10:42:33.447Z,97.00
2023-03-21T10:45:00.936Z,96.90
2023-03-21T10:47:38.286Z,97.00
2023-03-21T10:50:12.399Z,96.90
2023-03-21T10:52:47.697Z,96.80
2023-03-21T10:55:28.920Z,96.80
2023-03-21T10:58:07.678Z,97.00
2023-03-21T11:00:43.559Z,96.80
2023-03-21T11:03:43.754Z,96.80
2023-03-21T11:06:23.167Z,96.50
2023-03-21T11:09:17.629Z,96.50
2023-03-21T11:12:09.116Z,96.30
2023-03-21T11:14:51.199Z,96.20
2023-03-21T11:17:18.303Z,96.10
2023-03-21T11:19:51.222Z,96.10
2023-03-21T11:22:24.867Z,96.00
2023-03-21T11:24:54.759Z,95.60
2023-03-21T11:27:21.918Z,95.60
2023-03-21T11:29:52.416Z,95.60
2023-03-21T11:32:26.917Z,95.60
2023-03-21T11:35:12.764Z,95.40
2023-03-21T11:37:51.279Z,95.30
2023-03-21T11:40:26.158Z,95.00
2023-03-21T11:43:00.572Z,94.80
2023-03-21T11:45:27.648Z,94.70
2023-03-21T11:47:59.903Z,94.80
2023-03-21T11:50:33.894Z,94.90
2023-03-21T11:53:04.183Z,94.70
2023-03-21T11:56:02.767Z,94.70
2023-03-21T11:58:55.937Z,94.40
2023-03-21T12:01:37.617Z,94.40
2023-03-21T12:04:23.109Z,94.20
2023-03-21T12:07:01.596Z,93.80
2023-03-21T12:09:46.878Z,93.70
2023-03-21T12:13:05.371Z,93.80
2023-03-21T12:15:58.184Z,93.80
2023-03-21T12:19:23.616Z,93.70
2023-03-21T12:21:56.825Z,93.40
2023-03-21T12:24:32.971Z,93.20
2023-03-21T12:27:24.969Z,93.00
2023-03-21T12:30:24.471Z,93.00
2023-03-21T12:32:54.807Z,92.90
2023-03-21T12:35:54.125Z,92.80
2023-03-21T12:38:58.899Z,92.80
2023-03-21T12:41:37.732Z,92.90
2023-03-21T12:44:10.504Z,92.80
2023-03-21T12:47:02.486Z,92.80
2023-03-21T12:49:35.257Z,92.40
2023-03-21T12:52:12.029Z,92.70
2023-03-21T12:54:46.984Z,92.70
2023-03-21T12:57:31.145Z,92.80
2023-03-21T13:00:11.932Z,92.70
2023-03-21T13:02:51.322Z,92.70
2023-03-21T13:05:23.589Z,92.60
2023-03-21T13:08:12.348Z,92.70
2023-03-21T13:10:44.619Z,92.60
2023-03-21T13:13:13.562Z,92.50
2023-03-21T13:15:48.936Z,92.20
2023-03-21T13:18:53.907Z,91.90
2023-03-21T13:21:49.121Z,91.80
2023-03-21T13:24:44.674Z,91.50
2023-03-21T13:27:39.971Z,91.50
2023-03-21T13:30:21.961Z,91.60
2023-03-21T13:32:51.744Z,91.30
2023-03-21T13:35:43.986Z,91.40
2023-03-21T13:38:32.443Z,91.20
2023-03-21T13:41:05.865Z,90.80
2023-03-21T13:43:55.041Z,89.60
2023-03-21T13:46:25.627Z,89.50
2023-03-21T13:48:58.936Z,89.80
2023-03-21T13:51:30.013Z,89.70
2023-03-21T13:54:10.009Z,89.20
2023-03-21T13:56:48.322Z,88.60
2023-03-21T13:59:22.216Z,86.50
2023-03-21T14:02:21.238Z,86.60
2023-03-21T14:05:06.386Z,86.30
2023-03-21T14:07:42.609Z,85.40
2023-03-21T14:10:22.157Z,84.80
2023-03-21T14:12:49.992Z,84.70
2023-03-21T14:15:25.872Z,83.90
2023-03-21T14:18:15.806Z,83.40
2023-03-21T14:20:55.541Z,83.60
2023-03-21T14:23:28.261Z,82.80
2023-03-21T14:25:57.825Z,82.60
2023-03-21T14:28:28.662Z,82.30
2023-03-21T14:31:01.037Z,82.60
2023-03-21T14:33:41.662Z,83.00
2023-03-21T14:36:17.896Z,82.40
2023-03-21T14:39:15.207Z,81.70
2023-03-21T14:41:56.215Z,81.60
2023-03-21T14:44:37.966Z,82.50
2023-03-21T14:47:24.891Z,81.10
2023-03-21T14:49:52.792Z,80.60
2023-03-21T14:52:35.369Z,79.60
2023-03-21T14:55:14.041Z,79.10
2023-03-21T14:57:42.244Z,78.70
2023-03-21T15:00:29.196Z,78.70
2023-03-21T15:02:59.379Z,77.40
2023-03-21T15:05:39.355Z,78.20
2023-03-21T15:08:19.341Z,78.50
2023-03-21T15:11:06.976Z,79.00
2023-03-21T15:13:51.369Z,79.30
2023-03-21T15:16:19.378Z,79.60
2023-03-21T15:18:47.128Z,79.60
2023-03-21T15:21:27.885Z,79.60
2023-03-21T15:23:59.908Z,79.50
2023-03-21T15:26:31.257Z,79.40
2023-03-21T15:29:01.268Z,80.10
2023-03-21T15:31:44.273Z,80.10
2023-03-21T15:34:42.453Z,80.00
2023-03-21T15:37:17.295Z,80.30
2023-03-21T15:39:51.930Z,80.70
2023-03-21T15:42:40.956Z,80.80
2023-03-21T15:45:19.071Z,81.00
2023-03-21T15:47:49.454Z,81.10
2023-03-21T15:50:28.110Z,80.90
2023-03-21T15:52:58.994Z,81.20
2023-03-21T15:55:49.924Z,81.30
2023-03-21T15:58:24.060Z,81.20
2023-03-21T16:00:59.173Z,81.60
2023-03-21T16:03:38.155Z,81.70
2023-03-21T16:06:26.679Z,81.50
2023-03-21T16:10:04.949Z,81.80
2023-03-21T16:12:44.914Z,81.60
2023-03-21T16:15:12.296Z,81.80
2023-03-21T16:17:39.812Z,81.90
2023-03-21T16:20:33.996Z,82.40
2023-03-21T16:23:14.715Z,82.70
2023-03-21T16:25:58.090Z,82.60
2023-03-21T16:28:25.707Z,82.40
2023-03-21T16:31:12.532Z,82.40
2023-03-21T16:34:08.434Z,82.50
2023-03-21T16:36:38.430Z,82.70
2023-03-21T16:39:26.420Z,83.00
2023-03-21T16:41:53.913Z,83.10
2023-03-21T16:44:23.747Z,83.10
2023-03-21T16:46:53.477Z,83.20
2023-03-21T16:49:24.923Z,83.30
2023-03-21T16:51:53.127Z,83.50
2023-03-21T16:54:23.401Z,83.80
2023-03-21T16:57:01.835Z,83.80
2023-03-21T17:03:30.205Z,84.50
2023-03-21T17:05:57.623Z,86.10
2023-03-21T17:08:24.946Z,87.80
2023-03-21T17:11:04.394Z,88.60
2023-03-21T17:13:32.894Z,89.40
2023-03-21T17:16:00.154Z,90.00
2023-03-21T17:22:35.787Z,90.20
2023-03-21T17:25:06.618Z,90.10
2023-03-21T17:27:34.005Z,90.30
2023-03-21T17:30:01.151Z,90.60
2023-03-21T17:32:28.781Z,90.90
2023-03-21T17:34:55.787Z,91.20
2023-03-21T17:37:28.647Z,91.50
2023-03-21T17:39:55.704Z,91.70
2023-03-21T17:42:22.683Z,91.70
2023-03-21T17:44:49.746Z,91.80
2023-03-21T17:47:16.989Z,92.00
2023-03-21T17:49:46.085Z,92.00
2023-03-21T17:52:13.348Z,92.10
2023-03-21T17:54:42.326Z,92.20
2023-03-21T17:57:12.775Z,92.30
2023-03-21T17:59:43.101Z,92.30
2023-03-21T18:02:13.428Z,92.30
2023-03-21T18:04:40.692Z,92.30
2023-03-21T18:07:16.168Z,92.30
2023-03-21T18:09:48.078Z,92.40
2023-03-21T18:12:15.762Z,92.40
2023-03-21T18:14:44.112Z,92.60
2023-03-21T18:17:18.690Z,92.60
2023-03-21T18:19:47.777Z,92.70
2023-03-21T18:22:14.992Z,92.80
2023-03-21T18:24:45.394Z,92.90
2023-03-21T18:27:13.035Z,92.90
2023-03-21T18:30:25.957Z,93.00
2023-03-21T18:32:31.802Z,93.00
2023-03-21T18:35:04.547Z,93.00
2023-03-21T18:37:31.725Z,93.00
2023-03-21T18:40:04.333Z,93.00
2023-03-21T18:42:31.620Z,93.00
2023-03-21T18:45:02.526Z,93.00
2023-03-21T18:47:31.440Z,93.00
2023-03-21T18:50:13.644Z,93.00
2023-03-21T18:52:44.516Z,92.90
2023-03-21T18:58:02.551Z,92.90
2023-03-21T19:00:30.545Z,92.90
2023-03-21T19:03:18.887Z,92.90
2023-03-21T19:06:01.990Z,92.90
2023-03-21T19:08:29.549Z,92.90
2023-03-21T19:10:59.536Z,93.00
2023-03-21T19:13:32.089Z,93.00
2023-03-21T19:15:59.419Z,93.00
2023-03-21T19:18:49.513Z,93.00
2023-03-21T19:21:17.632Z,93.10
2023-03-21T19:24:22.845Z,93.10
2023-03-21T19:27:04.096Z,93.20
2023-03-21T19:29:31.673Z,93.20
2023-03-21T19:32:08.308Z,93.20
2023-03-21T19:34:35.699Z,93.20
2023-03-21T19:45:38.052Z,93.10
2023-03-21T19:48:15.674Z,93.10
2023-03-21T19:54:11.598Z,93.10
2023-03-21T19:56:47.605Z,93.10
2023-03-21T20:00:05.636Z,93.20
2023-03-21T20:02:36.135Z,93.30
2023-03-21T20:05:07.131Z,93.40
2023-03-21T20:07:34.621Z,93.60
2023-03-21T20:10:03.825Z,93.70
2023-03-21T20:13:43.426Z,93.80
2023-03-21T20:16:10.723Z,93.90
2023-03-21T20:18:52.671Z,94.00
2023-03-21T20:21:25.318Z,94.10
2023-03-21T20:27:41.497Z,94.30
2023-03-21T20:30:12.558Z,94.30
2023-03-21T20:32:41.528Z,94.40
2023-03-21T20:35:25.240Z,94.40
2023-03-21T20:38:29.854Z,94.50
2023-03-21T20:42:10.002Z,94.60
2023-03-21T20:45:57.606Z,94.70
2023-03-21T20:48:46.394Z,94.70
2023-03-21T20:54:18.956Z,94.80
2023-03-21T20:56:46.596Z,94.80
2023-03-21T20:59:24.570Z,94.80
2023-03-21T21:01:58.676Z,94.90
2023-03-21T21:08:48.000Z,94.90
2023-03-21T21:12:02.934Z,94.90
2023-03-21T21:14:06.449Z,95.00
2023-03-21T21:16:37.255Z,95.10
2023-03-21T21:19:11.626Z,95.10
2023-03-21T21:21:39.536Z,95.10
2023-03-21T21:24:11.052Z,95.20
2023-03-21T21:26:41.179Z,95.20
2023-03-21T21:29:11.248Z,95.30
2023-03-21T21:31:54.562Z,95.30
2023-03-21T21:34:21.755Z,95.30
2023-03-21T21:36:49.790Z,95.30
2023-03-21T21:39:16.986Z,95.20
2023-03-21T21:41:44.469Z,95.20
2023-03-21T21:44:11.873Z,95.20
2023-03-21T21:47:20.225Z,95.30
2023-03-21T21:50:26.823Z,95.30
2023-03-21T21:52:58.954Z,95.40
2023-03-21T21:55:26.266Z,95.40
2023-03-21T21:57:58.165Z,95.50
2023-03-21T22:05:16.479Z,95.50
2023-03-21T22:07:43.841Z,95.60
2023-03-21T22:10:11.586Z,95.60
2023-03-21T22:12:38.820Z,95.70
2023-03-21T22:15:10.888Z,95.70
2023-03-21T22:17:39.419Z,95.70
2023-03-21T22:20:12.791Z,95.70
2023-03-21T22:22:40.713Z,95.70
2023-03-21T22:25:11.157Z,95.70
2023-03-21T22:27:38.516Z,95.70
2023-03-21T22:30:08.325Z,95.80
2023-03-21T22:32:38.260Z,95.80
2023-03-21T22:35:07.162Z,95.80
2023-03-21T22:37:36.152Z,95.80
2023-03-21T22:40:05.970Z,95.70
2023-03-21T22:42:33.098Z,95.70
2023-03-21T22:45:01.618Z,95.70
2023-03-21T22:47:32.203Z,95.60
2023-03-21T22:49:59.924Z,95.60
2023-03-21T22:52:29.575Z,95.60
2023-03-21T22:54:56.853Z,95.60
2023-03-21T22:57:24.082Z,95.60
2023-03-21T22:59:53.493Z,95.60
2023-03-21T23:02:20.743Z,95.60
2023-03-21T23:04:47.788Z,95.60
2023-03-21T23:07:15.098Z,95.60
2023-03-21T23:09:42.230Z,95.60
2023-03-21T23:12:12.406Z,95.70
2023-03-21T23:14:39.761Z,95.70
2023-03-21T23:17:06.808Z,95.70
2023-03-21T23:19:33.999Z,95.70
2023-03-21T23:22:01.335Z,95.70
2023-03-21T23:24:31.021Z,95.70
2023-03-21T23:26:58.432Z,95.70
2023-03-21T23:29:25.636Z,95.70
2023-03-21T23:31:52.909Z,95.70
2023-03-21T23:37:01.143Z,95.60
2023-03-21T23:39:31.315Z,95.60
2023-03-21T23:42:01.506Z,95.60
2023-03-21T23:44:33.530Z,95.70
2023-03-21T23:47:02.964Z,95.70
2023-03-21T23:49:33.816Z,95.70
2023-03-21T23:52:01.299Z,95.70
2023-03-21T23:54:31.125Z,95.60
2023-03-21T23:57:07.078Z,95.50
2023-03-21T23:59:34.346Z,95.40
